Time;durP1;ratioP1;P1;durP2;ratioP2;P2;SDS_P1;SDS_P2;PMS_P1;PMS_P2;Temp;Humidity;BMP_temperature;BMP_pressure;BME280_temperature;BME280_humidity;BME280_pressure;Samples;Min_cycle;Max_cycle;Signal;HPM_P1;HPM_P2
2022/06/06 00:00:49;;;;;;;4.32;3.78;;;;;;;19.84;58.57;96647.25;10185539;29;20488;-82
2022/06/06 00:06:15;;;;;;;4.28;3.88;;;;;;;19.84;58.49;96660.00;10188792;29;20064;-82
2022/06/06 00:11:37;;;;;;;4.60;4.20;;;;;;;19.84;58.43;96665.41;10190864;29;20068;-82
2022/06/06 00:16:57;;;;;;;4.10;3.80;;;;;;;19.84;58.54;96671.59;10177808;29;20055;-82
2022/06/06 00:22:16;;;;;;;4.20;3.80;;;;;;;19.85;58.53;96680.47;10171668;29;20048;-82
2022/06/06 00:27:36;;;;;;;4.03;3.60;;;;;;;19.85;58.60;96677.78;10174222;29;20055;-81
2022/06/06 00:38:34;;;;;;;4.85;3.70;;;;;;;19.84;58.57;96678.91;10169788;29;20040;-82
2022/06/06 00:44:08;;;;;;;4.10;3.80;;;;;;;19.84;58.58;96668.88;10171973;29;20056;-81
2022/06/06 00:49:39;;;;;;;4.00;3.70;;;;;;;19.83;58.61;96672.69;10193029;29;20484;-82
2022/06/06 00:55:01;;;;;;;3.90;3.60;;;;;;;19.82;58.59;96687.34;10179687;29;20048;-82
2022/06/06 01:00:21;;;;;;;3.60;3.30;;;;;;;19.83;58.66;96699.72;10192080;29;20641;-82
2022/06/06 01:05:44;;;;;;;3.97;3.38;;;;;;;19.83;58.53;96694.31;10188037;29;20056;-82
2022/06/06 01:11:04;;;;;;;3.67;3.38;;;;;;;19.83;58.73;96698.94;10190029;29;20048;-82
2022/06/06 01:16:55;;;;;;;3.88;3.58;;;;;;;19.83;58.62;96704.34;10175077;29;20075;-82
2022/06/06 01:22:49;;;;;;;3.95;3.65;;;;;;;19.82;58.60;96711.66;10188601;29;20052;-82
2022/06/06 01:28:46;;;;;;;3.30;3.10;;;;;;;19.83;58.59;96720.56;10189463;29;20056;-82
2022/06/06 01:34:07;;;;;;;3.58;3.35;;;;;;;19.81;58.60;96718.19;10177378;29;20582;-82
2022/06/06 01:39:31;;;;;;;3.90;3.50;;;;;;;19.82;58.78;96719.78;10162947;29;20047;-82
2022/06/06 01:45:49;;;;;;;3.15;2.95;;;;;;;19.82;58.58;96717.06;10181911;29;20052;-82
2022/06/06 01:51:11;;;;;;;3.40;3.20;;;;;;;19.82;58.56;96719.00;10153687;29;20060;-82
2022/06/06 01:56:38;;;;;;;3.47;3.28;;;;;;;19.82;58.66;96733.28;10165088;29;20075;-82
2022/06/06 02:01:58;;;;;;;3.65;3.35;;;;;;;19.82;58.65;96744.13;10183760;29;20463;-82
2022/06/06 02:07:18;;;;;;;3.70;3.40;;;;;;;19.82;58.50;96757.63;10182634;29;20060;-82
2022/06/06 02:12:39;;;;;;;3.58;3.28;;;;;;;19.82;58.68;96757.63;10181754;29;20044;-82
2022/06/06 02:17:58;;;;;;;3.60;3.30;;;;;;;19.81;58.69;96764.13;10184177;29;20052;-82
2022/06/06 02:23:19;;;;;;;3.58;3.38;;;;;;;19.82;58.72;96771.16;10196045;29;20056;-82
2022/06/06 02:28:38;;;;;;;3.42;3.20;;;;;;;19.81;58.71;96772.25;10200924;29;20052;-82
2022/06/06 02:33:57;;;;;;;3.15;2.95;;;;;;;19.81;58.61;96777.66;10189756;29;20056;-82
2022/06/06 02:39:17;;;;;;;3.17;2.97;;;;;;;19.81;58.71;96774.94;10198483;29;20052;-82
2022/06/06 02:44:36;;;;;;;3.35;3.15;;;;;;;19.81;58.57;96777.66;10183591;29;20052;-82
2022/06/06 02:49:56;;;;;;;3.10;2.90;;;;;;;19.81;58.55;96768.75;10195491;29;20071;-82
2022/06/06 02:55:16;;;;;;;3.15;2.95;;;;;;;19.81;58.68;96771.47;10180490;29;20508;-83
2022/06/06 03:00:41;;;;;;;2.92;2.72;;;;;;;19.81;58.67;96776.88;10180650;29;20071;-82
2022/06/06 03:06:23;;;;;;;3.22;3.00;;;;;;;19.81;58.72;96777.66;10196458;29;20071;-82
2022/06/06 03:11:58;;;;;;;3.20;3.00;;;;;;;19.79;58.66;96779.88;10179413;29;20055;-82
2022/06/06 03:23:18;;;;;;;3.00;2.80;;;;;;;19.81;58.73;96791.16;10178190;29;20059;-82
2022/06/06 03:28:54;;;;;;;3.10;2.90;;;;;;;19.79;58.66;96790.72;10181197;29;20052;-82
2022/06/06 03:34:20;;;;;;;3.20;2.90;;;;;;;19.80;58.62;96791.50;10183216;29;20405;-82
2022/06/06 03:40:18;;;;;;;2.83;2.63;;;;;;;19.79;58.65;96795.31;10193047;29;20048;-82
2022/06/06 03:45:54;;;;;;;3.28;3.03;;;;;;;19.80;58.72;96802.31;10089976;29;21417;-82
2022/06/06 03:51:19;;;;;;;2.97;2.78;;;;;;;19.80;58.75;96810.41;10194001;29;20107;-82
2022/06/06 03:56:54;;;;;;;3.05;2.85;;;;;;;19.79;58.58;96806.94;10196774;29;20048;-82
2022/06/06 04:02:18;;;;;;;3.10;2.90;;;;;;;19.79;58.63;96812.34;10167912;29;20052;-82
2022/06/06 04:07:38;;;;;;;3.15;2.95;;;;;;;19.79;58.64;96814.25;10200325;29;20062;-81
2022/06/06 04:13:12;;;;;;;3.13;2.92;;;;;;;19.81;58.65;96822.81;10187240;29;20495;-82
2022/06/06 04:18:50;;;;;;;3.22;3.00;;;;;;;19.81;58.81;96820.91;10162411;29;20058;-82
2022/06/06 04:24:32;;;;;;;3.05;2.85;;;;;;;19.81;58.97;96830.94;10181261;29;20055;-82
2022/06/06 04:30:01;;;;;;;3.58;3.08;;;;;;;19.79;58.99;96828.56;10168093;29;20056;-82
2022/06/06 04:35:39;;;;;;;;;;;;;;;19.79;59.07;96828.56;10170408;29;20052;-83
2022/06/06 04:41:23;;;;;;;2.78;2.35;;;;;;;19.63;64.24;96836.38;10163823;29;19924;-82
2022/06/06 04:46:51;;;;;;;2.53;2.33;;;;;;;19.50;65.10;96837.38;10178771;29;20503;-82
2022/06/06 04:52:11;;;;;;;2.67;2.27;;;;;;;19.52;63.21;96840.53;10180383;29;20075;-82
2022/06/06 04:57:31;;;;;;;2.58;2.22;;;;;;;19.61;62.47;96851.34;10165413;29;20044;-82
2022/06/06 05:02:50;;;;;;;2.40;2.20;;;;;;;19.66;61.78;96857.34;10153737;29;20056;-81
2022/06/06 05:08:17;;;;;;;2.35;2.10;;;;;;;19.70;61.62;96862.91;10143824;29;20076;-82
2022/06/06 05:13:58;;;;;;;2.58;2.38;;;;;;;19.72;61.70;96866.13;10183269;29;20044;-81
2022/06/06 05:19:17;;;;;;;2.75;1.98;;;;;;;19.72;62.42;96882.34;10180151;29;20052;-83
2022/06/06 05:24:49;;;;;;;2.05;1.77;;;;;;;19.70;61.72;96879.13;10189103;29;20076;-81
2022/06/06 05:30:20;;;;;;;11.85;3.35;;;;;;;19.71;61.53;96880.72;10189612;29;20056;-82
2022/06/06 05:35:58;;;;;;;11.13;3.83;;;;;;;19.72;61.41;96890.44;10186896;29;20053;-82
2022/06/06 05:41:42;;;;;;;17.88;5.60;;;;;;;19.72;61.40;96883.13;10184974;29;20052;-82
2022/06/06 05:47:13;;;;;;;15.35;6.20;;;;;;;19.74;61.38;96890.91;10175942;29;20064;-82
2022/06/06 05:52:57;;;;;;;16.65;5.70;;;;;;;19.74;61.31;96896.31;10174169;29;20044;-82
2022/06/06 05:58:35;;;;;;;11.82;4.95;;;;;;;19.75;61.27;96900.59;10186541;29;20052;-82
2022/06/06 06:04:22;;;;;;;13.13;5.03;;;;;;;19.74;61.41;96901.72;10185752;29;20048;-82
2022/06/06 06:10:10;;;;;;;12.07;4.43;;;;;;;19.74;61.37;96896.31;10176770;29;20103;-82
2022/06/06 06:15:41;;;;;;;10.98;4.13;;;;;;;19.74;61.29;96907.13;10194989;29;20127;-82
2022/06/06 06:21:10;;;;;;;7.10;3.40;;;;;;;19.74;61.28;96912.53;10190528;29;20091;-82
2022/06/06 06:26:31;;;;;;;9.85;3.42;;;;;;;19.73;61.29;96922.53;10167912;29;20110;-82
2022/06/06 06:32:18;;;;;;;7.20;3.10;;;;;;;19.74;61.32;96924.13;10193899;29;20492;-82
2022/06/06 06:38:01;;;;;;;7.85;3.45;;;;;;;19.74;61.34;96928.75;10185729;29;20045;-81
2022/06/06 06:44:03;;;;;;;6.00;2.78;;;;;;;19.73;61.17;96933.34;10177028;29;20055;-81
2022/06/06 06:49:41;;;;;;;5.22;2.80;;;;;;;19.74;61.28;96944.97;10146115;29;20543;-82
2022/06/06 06:55:06;;;;;;;8.00;3.13;;;;;;;19.74;61.29;96943.06;10178444;29;20055;-81
2022/06/06 07:00:32;;;;;;;5.63;2.88;;;;;;;19.72;61.35;96939.09;10179636;29;20052;-81
2022/06/06 07:11:45;;;;;;;3.67;2.15;;;;;;;19.74;61.20;96942.28;10186156;29;20044;-82
2022/06/06 07:17:05;;;;;;;4.45;2.30;;;;;;;19.73;61.22;96937.97;10179311;29;20048;-82
2022/06/06 07:22:24;;;;;;;3.38;2.20;;;;;;;19.73;61.25;96940.66;10178775;29;20052;-82
2022/06/06 07:27:44;;;;;;;4.07;1.95;;;;;;;19.73;61.07;96949.56;10189942;29;20052;-82
2022/06/06 07:33:27;;;;;;;4.35;2.28;;;;;;;19.73;61.19;96948.78;10164718;29;20079;-82
2022/06/06 07:39:05;;;;;;;3.58;2.10;;;;;;;19.73;61.13;96944.16;10187397;29;20056;-82
2022/06/06 07:44:34;;;;;;;4.05;2.10;;;;;;;19.73;61.16;96941.47;10155874;29;20097;-82
2022/06/06 07:50:03;;;;;;;3.35;2.00;;;;;;;19.74;61.13;96950.38;10193749;29;20043;-82
2022/06/06 07:55:32;;;;;;;2.55;1.80;;;;;;;19.75;61.11;96952.75;10173190;29;20056;-82
2022/06/06 08:01:16;;;;;;;2.35;1.80;;;;;;;19.75;61.08;96960.06;10181903;29;20077;-82
2022/06/06 08:06:46;;;;;;;3.80;1.85;;;;;;;19.76;61.05;96964.38;10171329;29;20074;-82
2022/06/06 08:12:38;;;;;;;1.85;1.50;;;;;;;19.75;61.02;96957.38;10199268;29;20060;-82
2022/06/06 08:18:10;;;;;;;3.95;1.80;;;;;;;19.76;60.94;96953.56;10172335;29;20060;-82
2022/06/06 08:23:33;;;;;;;3.10;2.00;;;;;;;19.75;60.99;96941.13;10185296;29;20052;-82
2022/06/06 08:28:53;;;;;;;4.25;1.75;;;;;;;19.75;60.99;96960.06;10195416;29;20056;-82
2022/06/06 08:34:12;;;;;;;3.30;2.03;;;;;;;19.75;60.97;96960.06;10182046;29;20452;-82
2022/06/06 08:39:53;;;;;;;2.20;1.40;;;;;;;19.75;60.87;96960.84;10170282;29;20052;-82
2022/06/06 08:45:15;;;;;;;2.00;1.60;;;;;;;19.77;60.86;96965.16;10170036;29;20063;-82
2022/06/06 08:51:01;;;;;;;2.13;1.60;;;;;;;19.76;60.74;96958.97;10208058;29;20132;-82
2022/06/06 08:56:45;;;;;;;2.90;1.60;;;;;;;19.77;60.69;96959.75;10189481;29;20052;-82
2022/06/06 09:02:26;;;;;;;2.05;1.40;;;;;;;19.77;60.64;96947.03;10183567;29;20515;-81
2022/06/06 09:08:18;;;;;;;1.90;1.60;;;;;;;19.77;60.73;96957.84;10153269;29;20061;-82
2022/06/06 09:13:44;;;;;;;1.77;1.60;;;;;;;19.78;60.80;96955.91;10184546;29;20048;-82
2022/06/06 09:19:18;;;;;;;2.30;1.60;;;;;;;19.78;60.80;96955.91;10172323;29;20051;-81
2022/06/06 09:25:17;;;;;;;1.73;1.55;;;;;;;19.79;60.74;96949.41;10193484;29;20056;-81
2022/06/06 09:31:04;;;;;;;1.80;1.45;;;;;;;19.79;60.69;96952.13;10151218;29;20056;-82
2022/06/06 09:36:45;;;;;;;3.10;1.67;;;;;;;19.79;60.70;96938.59;10188368;29;20057;-82
2022/06/06 09:42:56;;;;;;;2.95;1.63;;;;;;;19.79;60.59;96942.09;10167020;29;20444;-82
2022/06/06 09:48:49;;;;;;;1.63;1.50;;;;;;;19.78;60.64;96942.41;10104923;29;20143;-82
2022/06/06 10:00:22;;;;;;;2.00;1.70;;;;;;;19.80;60.63;96942.88;10189873;29;20504;-81
2022/06/06 10:06:09;;;;;;;1.50;1.40;;;;;;;19.81;60.73;96936.34;10181448;29;20056;-81
2022/06/06 10:11:51;;;;;;;3.00;1.60;;;;;;;19.80;60.83;96937.47;10196825;29;20063;-81
2022/06/06 10:17:41;;;;;;;1.58;1.48;;;;;;;19.81;60.64;96947.19;10185652;29;20060;-82
2022/06/06 10:23:10;;;;;;;2.17;1.45;;;;;;;19.79;60.63;96938.59;10178504;29;20080;-81
2022/06/06 10:28:54;;;;;;;2.55;1.50;;;;;;;19.79;60.72;96935.91;10195167;29;20052;-81
2022/06/06 10:34:28;;;;;;;2.45;1.50;;;;;;;19.80;60.58;96938.28;10177446;29;20066;-81
2022/06/06 10:40:16;;;;;;;2.25;1.60;;;;;;;19.79;60.63;96936.69;10184701;29;20056;-81
2022/06/06 10:45:38;;;;;;;3.25;1.60;;;;;;;19.79;60.57;96939.38;10180277;29;20447;-82
2022/06/06 10:51:40;;;;;;;3.17;1.75;;;;;;;19.81;60.58;96941.75;10191343;29;20049;-82
2022/06/06 10:57:12;;;;;;;3.15;1.92;;;;;;;19.81;60.48;96934.44;10186610;29;20052;-82
2022/06/06 11:02:50;;;;;;;3.40;1.88;;;;;;;19.80;60.50;96932.06;10182067;29;20056;-81
2022/06/06 11:08:19;;;;;;;3.08;1.95;;;;;;;19.81;60.64;96939.06;10195702;29;20060;-82
2022/06/06 11:13:38;;;;;;;2.72;1.88;;;;;;;19.80;60.54;96934.75;10187345;29;20067;-82
2022/06/06 11:19:25;;;;;;;2.85;2.00;;;;;;;19.81;60.58;96933.66;10175475;29;20091;-82
2022/06/06 11:25:07;;;;;;;3.90;2.30;;;;;;;19.82;60.55;96932.56;10193970;29;20055;-82
2022/06/06 11:30:29;;;;;;;4.07;2.40;;;;;;;19.82;60.54;96927.94;10190522;29;20051;-82
2022/06/06 11:35:58;;;;;;;3.40;2.13;;;;;;;19.82;60.47;96919.81;10177827;29;20067;-82
2022/06/06 11:41:25;;;;;;;5.72;2.20;;;;;;;19.82;60.40;96919.03;10193546;29;20052;-82
2022/06/06 11:47:00;;;;;;;4.22;2.30;;;;;;;19.81;60.46;96915.53;10174510;29;20098;-82
2022/06/06 11:52:38;;;;;;;3.85;2.13;;;;;;;19.83;60.39;96915.22;10191703;29;20052;-81
2022/06/06 11:58:19;;;;;;;4.03;2.40;;;;;;;19.83;60.48;96907.88;10177995;29;20048;-82
2022/06/06 12:04:10;;;;;;;4.15;2.60;;;;;;;19.83;60.51;96904.38;10176887;29;20044;-82
2022/06/06 12:09:32;;;;;;;4.57;2.67;;;;;;;19.83;60.42;96907.09;10187221;29;20539;-82
2022/06/06 12:15:01;;;;;;;4.00;2.40;;;;;;;19.83;60.44;96904.38;10190274;29;20048;-82
2022/06/06 12:20:29;;;;;;;3.85;2.38;;;;;;;19.84;60.39;96895.19;10178877;29;20508;-82
2022/06/06 12:26:10;;;;;;;3.58;2.33;;;;;;;19.83;60.39;96899.78;10192016;29;20048;-81
2022/06/06 12:31:42;;;;;;;4.43;2.50;;;;;;;19.83;60.35;96891.66;10188741;29;20048;-81
2022/06/06 12:37:13;;;;;;;4.22;2.50;;;;;;;19.85;60.43;96892.13;10174351;29;20063;-81
2022/06/06 12:42:43;;;;;;;3.88;2.47;;;;;;;19.84;60.43;96890.56;10174063;29;20044;-81
2022/06/06 12:48:25;;;;;;;4.82;2.75;;;;;;;19.84;60.46;96889.78;10184520;29;20048;-82
2022/06/06 12:54:06;;;;;;;4.18;2.33;;;;;;;19.84;60.44;96884.38;10161152;29;20501;-82
2022/06/06 12:59:25;;;;;;;3.80;2.42;;;;;;;19.83;60.60;96886.25;10187685;29;20048;-81
2022/06/06 13:04:48;;;;;;;3.83;2.50;;;;;;;19.85;60.50;96880.53;10163136;29;20060;-81
2022/06/06 13:10:27;;;;;;;3.85;2.33;;;;;;;19.84;60.52;96863.53;10177455;29;20048;-82
2022/06/06 13:15:51;;;;;;;4.38;2.50;;;;;;;19.85;60.52;96869.72;10169196;29;20058;-81
2022/06/06 13:21:27;;;;;;;4.13;2.47;;;;;;;19.85;60.57;96862.38;10175369;29;20048;-82
2022/06/06 13:26:53;;;;;;;3.50;2.40;;;;;;;19.85;60.49;96851.56;10174927;29;20159;-81
2022/06/06 13:32:23;;;;;;;4.32;2.50;;;;;;;19.85;60.57;96845.38;10147714;29;20059;-82
2022/06/06 13:37:52;;;;;;;2.75;2.30;;;;;;;19.85;60.50;96831.88;10182949;29;20052;-82
2022/06/06 13:43:36;;;;;;;3.15;2.10;;;;;;;19.86;60.46;96838.88;10205136;29;20103;-81
2022/06/06 13:49:14;;;;;;;3.10;2.17;;;;;;;19.86;60.47;96839.66;10200920;29;20050;-81
2022/06/06 13:54:38;;;;;;;4.60;1.97;;;;;;;19.85;60.61;96838.06;10195023;29;20076;-81
2022/06/06 14:00:16;;;;;;;2.70;2.08;;;;;;;19.87;60.56;96841.22;10194498;29;20057;-81
2022/06/06 14:05:42;;;;;;;2.55;1.80;;;;;;;19.88;60.54;96845.53;10176336;29;20048;-81
2022/06/06 14:11:06;;;;;;;2.17;1.83;;;;;;;19.87;60.63;96835.81;10194783;29;20473;-81
2022/06/06 14:16:36;;;;;;;3.00;1.80;;;;;;;19.87;60.43;96832.34;10175580;29;20056;-81
2022/06/06 14:22:01;;;;;;;2.20;1.92;;;;;;;19.86;60.61;96823.44;10182068;29;20055;-82
2022/06/06 14:27:21;;;;;;;3.72;1.92;;;;;;;19.91;60.69;96820.53;10187003;29;20089;-82
2022/06/06 14:32:43;;;;;;;2.83;2.00;;;;;;;19.99;60.56;96828.94;10176384;29;20095;-82
2022/06/06 14:38:11;;;;;;;3.38;1.95;;;;;;;19.97;59.60;96821.16;10187756;29;20052;-82
2022/06/06 14:43:47;;;;;;;2.53;1.80;;;;;;;19.66;53.19;96813.31;10182105;29;20048;-82
2022/06/06 14:49:06;;;;;;;2.25;1.70;;;;;;;19.43;51.71;96821.66;10191130;29;20052;-82
2022/06/06 14:54:26;;;;;;;1.98;1.70;;;;;;;19.16;48.21;96817.44;10179551;29;20083;-82
2022/06/06 14:59:49;;;;;;;3.03;1.73;;;;;;;19.26;51.83;96817.09;10191930;29;20054;-82
2022/06/06 15:05:17;;;;;;;2.78;1.90;;;;;;;19.38;52.02;96811.03;10178573;29;20048;-83
2022/06/06 15:10:49;;;;;;;2.53;1.70;;;;;;;19.19;50.17;96811.41;10190786;29;20048;-82
2022/06/06 15:16:09;;;;;;;2.15;1.73;;;;;;;19.32;52.96;96820.41;10174881;29;20115;-82
2022/06/06 15:21:34;;;;;;;2.30;1.75;;;;;;;19.35;53.15;96807.06;10188197;29;20052;-82
2022/06/06 15:27:24;;;;;;;2.40;1.58;;;;;;;19.16;50.65;96804.72;10173844;29;20044;-83
2022/06/06 15:33:03;;;;;;;2.50;1.60;;;;;;;19.29;53.75;96800.25;10189458;29;20048;-83
2022/06/06 15:38:42;;;;;;;2.05;1.40;;;;;;;19.38;53.81;96781.31;10187871;29;20424;-82
2022/06/06 15:44:31;;;;;;;2.25;1.70;;;;;;;19.21;51.97;96774.06;10190496;29;20063;-82
2022/06/06 15:50:02;;;;;;;1.90;1.55;;;;;;;19.22;53.04;96769.44;10175400;29;20059;-82
2022/06/06 15:55:50;;;;;;;2.47;1.80;;;;;;;19.34;54.70;96764.94;10191074;29;20063;-82
2022/06/06 16:01:15;;;;;;;2.63;1.52;;;;;;;19.29;53.37;96759.75;10175631;29;20052;-82
2022/06/06 16:06:35;;;;;;;1.83;1.42;;;;;;;19.13;51.55;96761.34;10165790;29;20048;-83
2022/06/06 16:12:15;;;;;;;1.98;1.55;;;;;;;19.27;53.08;96761.97;10192627;29;20059;-83
2022/06/06 16:17:40;;;;;;;2.25;1.40;;;;;;;19.38;53.50;96765.09;10162460;29;20060;-83
2022/06/06 16:23:05;;;;;;;2.13;1.52;;;;;;;19.47;53.99;96760.47;10176412;29;20071;-83
2022/06/06 16:28:30;;;;;;;3.92;1.42;;;;;;;19.55;54.52;96769.66;10180904;29;20423;-83
2022/06/06 16:34:20;;;;;;;3.55;1.98;;;;;;;19.62;54.81;96763.72;10139921;29;20057;-83
2022/06/06 16:39:47;;;;;;;3.55;1.60;;;;;;;19.65;55.19;96771.19;10169540;29;20412;-83
2022/06/06 16:51:32;;;;;;;2.92;1.60;;;;;;;19.65;55.63;96763.09;10181804;29;20052;-83
2022/06/06 16:57:23;;;;;;;2.63;1.55;;;;;;;19.65;55.84;96758.47;10168190;29;20060;-83
2022/06/06 17:02:53;;;;;;;3.10;1.55;;;;;;;19.65;55.96;96760.38;10152881;29;20064;-83
2022/06/06 17:08:28;;;;;;;3.22;1.85;;;;;;;19.65;55.97;96754.97;10182074;29;20062;-83
2022/06/06 17:13:49;;;;;;;4.78;1.80;;;;;;;19.65;55.94;96752.28;10160329;29;20055;-83
2022/06/06 17:19:12;;;;;;;1.77;1.40;;;;;;;19.65;56.11;96755.75;10156592;29;20107;-83
2022/06/06 17:24:37;;;;;;;3.38;1.80;;;;;;;19.65;56.27;96752.28;10159926;29;20056;-83
2022/06/06 17:29:56;;;;;;;3.20;1.60;;;;;;;19.66;56.27;96759.25;10158097;29;20059;-83
2022/06/06 17:35:41;;;;;;;3.83;1.70;;;;;;;19.67;56.21;96766.25;10179144;29;20064;-83
2022/06/06 17:41:00;;;;;;;2.60;1.80;;;;;;;19.67;56.30;96767.03;10144280;29;20180;-83
2022/06/06 17:46:25;;;;;;;4.72;2.00;;;;;;;19.67;56.40;96760.84;10163944;29;20048;-83
2022/06/06 17:51:50;;;;;;;3.92;1.80;;;;;;;19.67;56.54;96769.75;10181599;29;20048;-83
2022/06/06 17:57:16;;;;;;;5.07;1.70;;;;;;;19.68;56.61;96762.41;10178277;29;20059;-83
2022/06/06 18:02:51;;;;;;;4.70;1.80;;;;;;;19.67;56.61;96772.44;10168881;29;20415;-83
2022/06/06 18:08:40;;;;;;;3.00;1.90;;;;;;;19.68;56.63;96775.94;10167184;29;20056;-82
2022/06/06 18:14:24;;;;;;;2.97;1.70;;;;;;;19.68;56.77;96770.53;10181265;28;20056;-83
2022/06/06 18:19:44;;;;;;;4.45;1.83;;;;;;;19.67;56.85;96766.25;10184913;29;20068;-83
2022/06/06 18:25:05;;;;;;;2.85;1.88;;;;;;;19.67;56.83;96777.84;10175944;29;20058;-82
2022/06/06 18:30:30;;;;;;;2.67;1.70;;;;;;;19.67;56.90;96771.66;10180022;29;20052;-82
2022/06/06 18:35:51;;;;;;;2.35;1.75;;;;;;;19.68;56.96;96775.94;10180680;29;20067;-82
2022/06/06 18:41:24;;;;;;;2.08;1.67;;;;;;;19.68;57.02;96782.16;10172809;29;20512;-82
2022/06/06 18:46:43;;;;;;;2.92;1.80;;;;;;;19.67;57.09;96777.06;10183911;29;20135;-84
2022/06/06 18:52:06;;;;;;;3.67;1.88;;;;;;;19.68;56.26;96784.03;10164118;29;20052;-83
2022/06/06 18:57:26;;;;;;;4.47;1.70;;;;;;;19.69;55.52;96791.03;10154584;29;20072;-83
2022/06/06 19:02:51;;;;;;;2.53;1.60;;;;;;;19.70;54.58;96790.72;10158457;29;20057;-82
2022/06/06 19:08:19;;;;;;;2.83;1.70;;;;;;;19.69;54.34;96791.03;10165213;29;20062;-83
2022/06/06 19:13:39;;;;;;;1.90;1.70;;;;;;;19.70;54.11;96793.44;10153462;29;20492;-83
2022/06/06 19:19:00;;;;;;;3.08;1.70;;;;;;;19.70;54.35;96792.66;10161912;29;20056;-83
2022/06/06 19:24:23;;;;;;;6.22;1.52;;;;;;;19.68;54.83;96798.38;10187613;29;20081;-83
2022/06/06 19:29:42;;;;;;;3.33;1.52;;;;;;;19.69;54.83;96802.66;10163862;29;20060;-83
2022/06/06 19:35:28;;;;;;;3.83;1.60;;;;;;;19.71;55.41;96807.72;10167945;29;20056;-83
2022/06/06 19:40:53;;;;;;;7.45;2.00;;;;;;;19.71;55.69;96805.84;10152206;29;20048;-82
2022/06/06 19:46:22;;;;;;;5.72;1.73;;;;;;;19.70;56.04;96814.28;10163148;29;20064;-82
2022/06/06 19:51:44;;;;;;;6.13;2.08;;;;;;;19.69;56.45;96816.16;10172995;29;20044;-82
2022/06/06 19:57:19;;;;;;;3.22;2.05;;;;;;;19.69;56.75;96808.06;10168066;29;20044;-82
2022/06/06 20:02:44;;;;;;;4.82;2.30;;;;;;;19.69;57.19;96808.06;10165074;29;20054;-83
2022/06/06 20:08:20;;;;;;;5.82;1.92;;;;;;;19.70;57.67;96803.47;10152630;29;20056;-83
2022/06/06 20:13:49;;;;;;;3.75;1.98;;;;;;;19.70;57.91;96801.53;10172376;29;20060;-82
2022/06/06 20:19:19;;;;;;;2.65;2.08;;;;;;;19.70;57.95;96798.06;10173987;29;20055;-82
2022/06/06 20:24:47;;;;;;;5.40;1.75;;;;;;;19.70;57.81;96806.16;10172681;29;20062;-82
2022/06/06 20:30:19;;;;;;;3.75;1.95;;;;;;;19.68;58.11;96811.88;10176212;29;20133;-82
2022/06/06 20:35:39;;;;;;;2.33;1.85;;;;;;;19.68;58.17;96811.88;10171163;29;20504;-82
2022/06/06 20:41:02;;;;;;;2.75;1.90;;;;;;;19.67;58.27;96804.88;10176738;29;20500;-82
2022/06/06 20:46:27;;;;;;;5.30;2.05;;;;;;;19.68;58.30;96801.06;10168115;29;20107;-81
2022/06/06 20:51:52;;;;;;;2.10;1.90;;;;;;;19.68;58.55;96794.84;10174204;29;20044;-82
2022/06/06 20:57:19;;;;;;;2.17;1.98;;;;;;;19.68;58.57;96800.25;10178077;29;20059;-82
2022/06/06 21:02:39;;;;;;;2.58;1.90;;;;;;;19.68;58.53;96800.25;10165308;29;20048;-81
2022/06/06 21:07:59;;;;;;;2.17;1.90;;;;;;;19.68;58.57;96802.97;10162118;29;20059;-82
2022/06/06 21:13:21;;;;;;;1.67;1.58;;;;;;;19.67;58.71;96802.19;10153870;29;20645;-84
2022/06/06 21:18:41;;;;;;;2.10;1.90;;;;;;;19.68;58.89;96803.78;10149938;29;20055;-83
2022/06/06 21:24:02;;;;;;;2.30;1.90;;;;;;;19.69;59.12;96802.66;10179917;29;20131;-84
2022/06/06 21:29:21;;;;;;;2.42;1.92;;;;;;;19.69;59.00;96802.66;10156787;29;20086;-83
2022/06/06 21:34:42;;;;;;;2.13;1.85;;;;;;;19.70;58.89;96808.88;10179253;29;20048;-84
2022/06/06 21:40:07;;;;;;;2.42;1.90;;;;;;;19.67;58.94;96802.19;10172392;29;20535;-83
2022/06/06 21:45:27;;;;;;;4.68;1.75;;;;;;;19.68;58.82;96803.78;10136660;29;20060;-83
2022/06/06 21:56:34;;;;;;;2.93;2.33;;;;;;;19.67;58.69;96793.28;10173669;29;20048;-83
2022/06/06 22:01:56;;;;;;;2.00;1.80;;;;;;;19.66;58.65;96789.78;10161377;29;20416;-83
2022/06/06 22:07:16;;;;;;;2.13;1.90;;;;;;;19.66;58.59;96781.69;10174998;29;20048;-83
2022/06/06 22:12:36;;;;;;;2.03;1.80;;;;;;;19.65;58.55;96790.13;10162335;29;20500;-83
2022/06/06 22:17:55;;;;;;;1.90;1.80;;;;;;;19.66;58.45;96792.50;10162430;29;20058;-83
2022/06/06 22:23:14;;;;;;;2.17;1.98;;;;;;;19.66;58.56;96786.28;10160046;29;20048;-83
2022/06/06 22:28:34;;;;;;;2.85;1.98;;;;;;;19.64;58.54;96780.41;10163059;29;20100;-83
2022/06/06 22:33:54;;;;;;;1.88;1.77;;;;;;;19.65;58.38;96784.72;10151700;29;20078;-83
2022/06/06 22:39:13;;;;;;;2.10;1.90;;;;;;;19.65;58.36;96773.91;10167227;29;20496;-82
2022/06/06 22:44:33;;;;;;;2.05;1.95;;;;;;;19.64;58.35;96780.41;10164025;29;20147;-83
2022/06/06 22:49:52;;;;;;;1.95;1.85;;;;;;;19.63;58.35;96774.22;10160695;29;20874;-82
2022/06/06 22:55:12;;;;;;;2.05;1.85;;;;;;;19.63;58.18;96774.22;10158290;29;20063;-83
2022/06/06 23:00:31;;;;;;;2.13;1.90;;;;;;;19.64;58.25;96780.41;10195991;29;20484;-83
2022/06/06 23:05:51;;;;;;;2.00;1.90;;;;;;;19.64;58.38;96777.69;10168729;29;20083;-83
2022/06/06 23:11:11;;;;;;;2.00;1.90;;;;;;;19.63;58.25;96781.53;10181591;29;20481;-82
2022/06/06 23:16:30;;;;;;;1.83;1.63;;;;;;;19.62;58.36;96778.06;10162639;29;20053;-82
2022/06/06 23:21:51;;;;;;;1.80;1.70;;;;;;;19.63;58.37;96770.72;10171389;29;20059;-82
2022/06/06 23:27:10;;;;;;;1.75;1.65;;;;;;;19.61;58.25;96765.66;10168634;29;20527;-83
2022/06/06 23:32:30;;;;;;;1.83;1.67;;;;;;;19.62;58.20;96766.44;10170395;29;20082;-83
2022/06/06 23:37:58;;;;;;;2.63;1.75;;;;;;;19.62;58.33;96771.84;10181322;29;20049;-83
2022/06/06 23:43:24;;;;;;;2.45;2.17;;;;;;;19.61;58.27;96767.56;10166060;29;20052;-83
2022/06/06 23:48:50;;;;;;;2.00;1.80;;;;;;;19.61;58.29;96768.34;10181886;29;20060;-83
2022/06/06 23:54:10;;;;;;;2.10;1.90;;;;;;;19.60;58.30;96755.97;10158940;29;20467;-83
2022/06/06 23:59:29;;;;;;;2.15;1.98;;;;;;;19.61;58.32;96756.75;10184857;29;20500;-82
